Time;durP1;ratioP1;P1;durP2;ratioP2;P2;SDS_P1;SDS_P2;PMS_P1;PMS_P2;Temp;Humidity;BMP_temperature;BMP_pressure;BME280_temperature;BME280_humidity;BME280_pressure;Samples;Min_cycle;Max_cycle;Signal;HPM_P1;HPM_P2
2024/01/17 00:01:26;;;;;;;29.20;14.23;;;-1.20;93.60;;;;;;796355;177;26411;-79
2024/01/17 00:03:53;;;;;;;30.90;13.87;;;-1.20;93.60;;;;;;794670;179;26982;-79
2024/01/17 00:06:20;;;;;;;41.40;15.07;;;-1.20;93.50;;;;;;796479;179;26458;-79
2024/01/17 00:08:46;;;;;;;29.67;15.17;;;-1.20;93.40;;;;;;796790;179;26428;-79
2024/01/17 00:11:12;;;;;;;36.77;14.20;;;-1.20;93.20;;;;;;795218;179;26420;-78
2024/01/17 00:13:39;;;;;;;31.27;14.27;;;-1.20;93.20;;;;;;795942;179;26436;-79
2024/01/17 00:16:06;;;;;;;32.90;14.00;;;-1.20;93.00;;;;;;797789;176;26450;-79
2024/01/17 00:18:32;;;;;;;33.67;15.10;;;-1.20;93.00;;;;;;796348;179;26411;-79
2024/01/17 00:20:59;;;;;;;33.97;14.53;;;-1.30;92.70;;;;;;794243;180;28033;-79
2024/01/17 00:23:25;;;;;;;31.73;14.53;;;-1.30;92.90;;;;;;797867;178;26440;-79
2024/01/17 00:25:52;;;;;;;29.57;13.53;;;-1.30;93.00;;;;;;793794;180;26467;-75
2024/01/17 00:28:19;;;;;;;35.87;14.10;;;-1.30;93.10;;;;;;797184;179;26459;-79
2024/01/17 00:30:46;;;;;;;29.53;13.63;;;-1.30;93.10;;;;;;795855;179;26449;-78
2024/01/17 00:33:12;;;;;;;34.30;14.20;;;-1.30;93.30;;;;;;795831;177;26498;-78
2024/01/17 00:35:39;;;;;;;35.90;14.43;;;-1.30;93.20;;;;;;789370;180;26525;-78
2024/01/17 00:38:05;;;;;;;29.97;13.87;;;-1.30;93.30;;;;;;794784;178;26999;-80
2024/01/17 00:40:32;;;;;;;38.63;15.00;;;-1.30;93.40;;;;;;797087;180;26420;-78
2024/01/17 00:42:58;;;;;;;30.47;14.17;;;-1.30;93.40;;;;;;793755;179;27030;-78
2024/01/17 00:45:25;;;;;;;31.67;13.70;;;-1.30;93.30;;;;;;792698;180;26411;-78
2024/01/17 00:47:52;;;;;;;31.17;14.07;;;-1.40;93.30;;;;;;791963;180;26470;-78
2024/01/17 00:50:19;;;;;;;29.73;14.27;;;-1.30;93.30;;;;;;791289;180;27028;-78
2024/01/17 00:52:45;;;;;;;30.97;14.33;;;-1.30;92.90;;;;;;795247;179;26467;-77
2024/01/17 00:55:11;;;;;;;31.50;14.40;;;-1.40;92.90;;;;;;795920;180;26418;-78
2024/01/17 00:57:38;;;;;;;31.77;13.87;;;-1.40;93.10;;;;;;797388;180;26461;-78
2024/01/17 01:00:07;;;;;;;26.43;14.63;;;-1.40;93.00;;;;;;796347;179;26792;-78
2024/01/17 01:02:32;;;;;;;28.97;13.43;;;-1.40;93.10;;;;;;793933;178;26449;-78
2024/01/17 01:04:59;;;;;;;34.80;15.63;;;-1.40;93.00;;;;;;794333;180;27042;-78
2024/01/17 01:07:25;;;;;;;37.63;15.43;;;-1.40;93.30;;;;;;792859;180;26436;-77
2024/01/17 01:09:53;;;;;;;32.27;15.50;;;-1.50;93.40;;;;;;789642;182;26458;-77
2024/01/17 01:12:20;;;;;;;30.10;14.27;;;-1.50;93.30;;;;;;789292;180;26425;-77
2024/01/17 01:14:46;;;;;;;28.17;14.03;;;-1.50;93.30;;;;;;793574;180;26433;-79
2024/01/17 01:17:13;;;;;;;36.07;14.37;;;-1.50;93.30;;;;;;796582;180;26462;-79
2024/01/17 01:19:40;;;;;;;37.57;14.83;;;-1.50;93.30;;;;;;793768;180;26425;-79
2024/01/17 01:22:06;;;;;;;33.70;14.70;;;-1.50;93.20;;;;;;796329;179;28063;-78
2024/01/17 01:24:33;;;;;;;31.43;14.83;;;-1.50;93.20;;;;;;796871;177;26421;-80
2024/01/17 01:26:59;;;;;;;32.20;15.03;;;-1.50;93.30;;;;;;798175;179;26972;-79
2024/01/17 01:29:26;;;;;;;29.40;13.83;;;-1.50;93.30;;;;;;800229;179;26523;-79
2024/01/17 01:31:53;;;;;;;31.63;14.20;;;-1.60;93.40;;;;;;798679;178;26416;-79
2024/01/17 01:34:19;;;;;;;31.53;15.13;;;-1.60;93.30;;;;;;796735;179;26427;-79
2024/01/17 01:36:46;;;;;;;27.80;14.43;;;-1.60;93.30;;;;;;797728;180;26440;-80
2024/01/17 01:39:14;;;;;;;32.23;15.40;;;-1.60;93.40;;;;;;793890;180;27066;-80
2024/01/17 01:41:39;;;;;;;32.93;15.57;;;-1.60;93.50;;;;;;792382;178;26453;-80
2024/01/17 01:44:06;;;;;;;38.33;16.40;;;-1.60;93.40;;;;;;798143;179;26425;-79
2024/01/17 01:46:32;;;;;;;30.83;15.83;;;-1.60;93.40;;;;;;796484;179;26472;-79
2024/01/17 01:48:59;;;;;;;34.47;15.60;;;-1.60;93.50;;;;;;794068;178;26418;-79
2024/01/17 01:51:25;;;;;;;32.40;14.37;;;-1.60;93.50;;;;;;791589;180;26422;-80
2024/01/17 01:53:52;;;;;;;32.93;14.53;;;-1.60;93.40;;;;;;795084;179;26434;-80
2024/01/17 01:56:19;;;;;;;29.37;15.37;;;-1.60;93.40;;;;;;793395;175;26445;-80
2024/01/17 01:58:45;;;;;;;43.57;15.47;;;-1.70;93.40;;;;;;793644;180;26431;-79
2024/01/17 02:01:12;;;;;;;33.00;15.47;;;-1.60;93.40;;;;;;796204;179;26438;-79
2024/01/17 02:03:38;;;;;;;32.70;15.53;;;-1.60;93.60;;;;;;796334;179;26956;-80
2024/01/17 02:06:06;;;;;;;31.63;15.50;;;-1.60;93.70;;;;;;795913;179;26465;-79
2024/01/17 02:08:32;;;;;;;36.57;15.80;;;-1.70;93.70;;;;;;797784;178;26986;-79
2024/01/17 02:10:58;;;;;;;34.20;14.90;;;-1.70;93.60;;;;;;796583;177;26560;-80
2024/01/17 02:13:25;;;;;;;35.67;16.00;;;-1.70;93.70;;;;;;796448;179;26439;-78
2024/01/17 02:15:51;;;;;;;36.40;15.73;;;-1.70;93.60;;;;;;793043;178;26436;-78
2024/01/17 02:18:18;;;;;;;39.00;17.00;;;-1.80;93.60;;;;;;784184;180;26437;-79
2024/01/17 02:20:45;;;;;;;41.30;17.93;;;-1.80;93.70;;;;;;793900;180;26411;-80
2024/01/17 02:23:21;;;;;;;34.17;15.90;;;-1.80;93.70;;;;;;793838;180;26416;-80
2024/01/17 02:25:48;;;;;;;34.33;15.83;;;-1.80;93.80;;;;;;795051;176;26440;-79
2024/01/17 02:28:14;;;;;;;34.00;16.03;;;-1.80;93.90;;;;;;794790;180;26487;-78
2024/01/17 02:30:41;;;;;;;36.37;17.20;;;-1.80;93.80;;;;;;794257;179;26404;-80
2024/01/17 02:33:08;;;;;;;37.57;16.07;;;-1.80;93.80;;;;;;795958;179;26420;-79
2024/01/17 02:35:34;;;;;;;38.53;16.10;;;-1.90;93.80;;;;;;796516;179;26409;-80
2024/01/17 02:38:01;;;;;;;41.93;17.33;;;-1.90;93.80;;;;;;798296;179;26429;-80
2024/01/17 02:40:27;;;;;;;31.83;16.17;;;-1.80;93.90;;;;;;795952;180;26429;-79
2024/01/17 02:42:54;;;;;;;31.03;15.23;;;-1.90;93.90;;;;;;793702;180;26409;-80
2024/01/17 02:45:21;;;;;;;31.63;15.10;;;-1.80;94.00;;;;;;793641;175;26412;-80
2024/01/17 02:47:47;;;;;;;40.50;16.47;;;-1.90;94.00;;;;;;797656;179;26712;-80
2024/01/17 02:50:15;;;;;;;32.13;15.47;;;-1.90;94.30;;;;;;798900;178;26457;-80
2024/01/17 02:52:42;;;;;;;41.67;15.93;;;-1.90;94.00;;;;;;796751;180;26927;-78
2024/01/17 02:55:08;;;;;;;33.63;14.50;;;-1.90;93.90;;;;;;795750;180;26412;-79
2024/01/17 02:57:35;;;;;;;36.77;17.03;;;-1.90;93.90;;;;;;796940;177;26486;-80
2024/01/17 03:00:02;;;;;;;36.83;15.83;;;-1.90;94.00;;;;;;794099;180;26440;-79
2024/01/17 03:02:28;;;;;;;32.93;15.80;;;-1.90;94.10;;;;;;792609;180;26948;-78
2024/01/17 03:04:55;;;;;;;33.63;15.67;;;-1.90;94.10;;;;;;789253;179;26456;-79
2024/01/17 03:07:22;;;;;;;33.67;15.33;;;-1.90;94.10;;;;;;794077;180;26461;-78
2024/01/17 03:09:48;;;;;;;34.43;16.43;;;-1.90;94.00;;;;;;795339;180;26413;-80
2024/01/17 03:12:15;;;;;;;30.37;16.43;;;-1.90;94.00;;;;;;790655;180;26486;-79
2024/01/17 03:14:42;;;;;;;35.50;16.97;;;-1.90;94.10;;;;;;795725;179;26423;-80
2024/01/17 03:17:08;;;;;;;39.10;15.93;;;-1.90;94.20;;;;;;797767;178;26449;-79
2024/01/17 03:19:35;;;;;;;38.10;16.17;;;-1.90;94.20;;;;;;796341;180;26424;-80
2024/01/17 03:22:02;;;;;;;32.87;15.40;;;-1.90;94.50;;;;;;796828;176;26417;-80
2024/01/17 03:24:28;;;;;;;37.23;16.40;;;-1.90;94.20;;;;;;797079;179;26421;-80
2024/01/17 03:26:55;;;;;;;41.03;15.57;;;-1.90;94.20;;;;;;795821;179;27039;-80
2024/01/17 03:29:22;;;;;;;35.03;16.43;;;-1.90;94.30;;;;;;796620;179;26406;-79
2024/01/17 03:31:48;;;;;;;33.87;16.50;;;-1.90;94.30;;;;;;795493;180;26998;-79
2024/01/17 03:34:15;;;;;;;37.50;16.93;;;-1.90;94.20;;;;;;795539;179;26437;-79
2024/01/17 03:36:41;;;;;;;33.27;17.60;;;-1.80;94.30;;;;;;792137;180;26459;-78
2024/01/17 03:39:08;;;;;;;38.47;16.50;;;-1.80;94.10;;;;;;791818;181;26412;-80
2024/01/17 03:41:35;;;;;;;35.30;15.83;;;-1.80;94.10;;;;;;789456;181;26446;-79
2024/01/17 03:44:01;;;;;;;40.17;16.27;;;-1.80;94.10;;;;;;791210;180;26414;-79
2024/01/17 03:46:28;;;;;;;30.47;15.87;;;-1.80;94.00;;;;;;797661;179;26455;-80
2024/01/17 03:48:54;;;;;;;35.83;15.23;;;-1.70;94.10;;;;;;796314;179;26432;-80
2024/01/17 03:51:21;;;;;;;41.80;17.43;;;-1.70;94.00;;;;;;797353;179;26962;-79
2024/01/17 03:53:48;;;;;;;30.77;15.13;;;-1.70;94.00;;;;;;797987;179;26444;-79
2024/01/17 03:56:14;;;;;;;41.53;17.70;;;-1.70;93.80;;;;;;796605;179;26462;-78
2024/01/17 03:58:41;;;;;;;32.97;15.90;;;-1.60;93.90;;;;;;798266;178;26431;-79
2024/01/17 04:01:09;;;;;;;34.60;15.70;;;-1.60;93.90;;;;;;795612;179;28088;-79
2024/01/17 04:03:35;;;;;;;35.27;16.47;;;-1.60;93.80;;;;;;796453;176;26413;-80
2024/01/17 04:06:03;;;;;;;37.53;16.60;;;-1.60;93.60;;;;;;797559;179;27124;-79
2024/01/17 04:08:29;;;;;;;35.70;16.20;;;-1.60;93.60;;;;;;794510;175;28032;-80
2024/01/17 04:10:56;;;;;;;37.53;15.87;;;-1.60;93.50;;;;;;789890;180;26428;-81
2024/01/17 04:13:23;;;;;;;34.07;15.17;;;-1.60;93.40;;;;;;789977;180;26496;-79
2024/01/17 04:15:49;;;;;;;38.57;17.03;;;-1.60;93.10;;;;;;793313;180;27007;-80
2024/01/17 04:18:16;;;;;;;33.87;15.87;;;-1.60;93.00;;;;;;798142;179;26435;-79
2024/01/17 04:20:43;;;;;;;33.47;15.37;;;-1.60;93.00;;;;;;796275;179;26434;-79
2024/01/17 04:23:10;;;;;;;36.50;16.00;;;-1.60;92.90;;;;;;799102;179;26440;-78
2024/01/17 04:25:36;;;;;;;31.57;15.77;;;-1.60;93.00;;;;;;796961;177;26964;-78
2024/01/17 04:28:06;;;;;;;35.03;16.97;;;-1.60;93.00;;;;;;797959;180;26447;-79
2024/01/17 04:30:32;;;;;;;32.83;16.43;;;-1.60;92.90;;;;;;791748;179;26962;-72
2024/01/17 04:33:00;;;;;;;34.57;15.30;;;-1.60;92.90;;;;;;794297;178;26427;-72
2024/01/17 04:35:26;;;;;;;37.23;15.80;;;-1.60;93.10;;;;;;792476;178;26456;-72
2024/01/17 04:37:53;;;;;;;35.80;15.43;;;-1.60;93.20;;;;;;795438;180;26994;-79
2024/01/17 04:40:19;;;;;;;34.17;16.03;;;-1.60;93.00;;;;;;795628;180;26418;-79
2024/01/17 04:42:48;;;;;;;41.77;15.63;;;-1.60;92.80;;;;;;789379;180;26431;-79
2024/01/17 04:45:12;;;;;;;35.33;15.87;;;-1.50;92.80;;;;;;794083;179;27018;-79
2024/01/17 04:47:39;;;;;;;35.90;15.53;;;-1.50;92.80;;;;;;792555;180;26437;-77
2024/01/17 04:50:05;;;;;;;37.60;17.00;;;-1.50;92.70;;;;;;791893;180;26449;-80
2024/01/17 04:52:32;;;;;;;41.40;17.07;;;-1.50;92.50;;;;;;793178;180;26433;-80
2024/01/17 04:54:59;;;;;;;38.13;15.30;;;-1.50;92.70;;;;;;794243;180;26972;-80
2024/01/17 04:57:26;;;;;;;31.70;14.80;;;-1.50;92.70;;;;;;791498;180;26439;-80
2024/01/17 04:59:52;;;;;;;33.67;14.67;;;-1.50;92.70;;;;;;790693;178;26429;-79
2024/01/17 05:02:18;;;;;;;33.53;14.77;;;-1.50;92.70;;;;;;791507;180;26426;-80
2024/01/17 05:04:45;;;;;;;33.40;15.73;;;-1.60;92.60;;;;;;797721;180;26432;-80
2024/01/17 05:07:12;;;;;;;36.23;15.40;;;-1.60;92.70;;;;;;798818;178;27003;-79
2024/01/17 05:09:38;;;;;;;34.83;16.33;;;-1.60;92.70;;;;;;796145;174;26425;-79
2024/01/17 05:12:05;;;;;;;36.33;17.00;;;-1.60;92.70;;;;;;795976;179;26431;-79
2024/01/17 05:14:32;;;;;;;35.57;14.80;;;-1.60;92.80;;;;;;793848;179;28072;-79
2024/01/17 05:16:58;;;;;;;35.20;15.50;;;-1.60;92.80;;;;;;793532;180;26482;-79
2024/01/17 05:19:25;;;;;;;37.47;15.43;;;-1.60;92.80;;;;;;792906;180;26442;-79
2024/01/17 05:21:52;;;;;;;36.10;14.97;;;-1.60;92.70;;;;;;792649;180;26447;-79
2024/01/17 05:24:18;;;;;;;36.07;17.27;;;-1.50;92.70;;;;;;793990;179;26432;-78
2024/01/17 05:26:46;;;;;;;37.10;16.43;;;-1.50;92.90;;;;;;796804;180;26445;-79
2024/01/17 05:29:11;;;;;;;33.57;14.70;;;-1.50;93.10;;;;;;792738;180;26465;-79
2024/01/17 05:31:38;;;;;;;37.53;15.93;;;-1.50;93.10;;;;;;793102;180;26419;-80
2024/01/17 05:34:05;;;;;;;34.93;15.13;;;-1.50;92.90;;;;;;795990;180;26409;-81
2024/01/17 05:36:31;;;;;;;35.90;16.30;;;-1.50;93.10;;;;;;794319;180;26437;-81
2024/01/17 05:38:58;;;;;;;27.40;14.30;;;-1.50;92.90;;;;;;791170;180;26462;-80
2024/01/17 05:41:24;;;;;;;32.63;15.83;;;-1.50;92.90;;;;;;792123;180;26429;-81
2024/01/17 05:43:51;;;;;;;36.13;15.97;;;-1.50;92.80;;;;;;798267;180;27987;-81
2024/01/17 05:46:18;;;;;;;38.00;16.90;;;-1.50;92.80;;;;;;794380;179;26453;-81
2024/01/17 05:48:44;;;;;;;38.50;16.37;;;-1.50;92.70;;;;;;795380;180;27665;-78
2024/01/17 05:51:12;;;;;;;35.53;16.60;;;-1.50;92.60;;;;;;794494;180;26437;-79
2024/01/17 05:53:37;;;;;;;35.30;14.90;;;-1.50;92.50;;;;;;796120;178;26427;-81
2024/01/17 05:56:04;;;;;;;32.77;14.90;;;-1.50;92.60;;;;;;795114;180;27042;-81
2024/01/17 05:58:31;;;;;;;33.87;15.90;;;-1.50;92.50;;;;;;796564;180;26425;-81
2024/01/17 06:00:57;;;;;;;39.13;15.63;;;-1.50;92.40;;;;;;793135;180;26413;-81
2024/01/17 06:03:24;;;;;;;34.63;14.53;;;-1.50;92.50;;;;;;794858;177;26463;-81
2024/01/17 06:05:51;;;;;;;35.07;15.10;;;-1.50;92.50;;;;;;799106;179;26441;-79
2024/01/17 06:08:17;;;;;;;36.27;15.40;;;-1.50;92.50;;;;;;796378;179;26440;-81
2024/01/17 06:10:44;;;;;;;38.97;15.83;;;-1.40;92.40;;;;;;797658;178;26419;-82
2024/01/17 06:13:11;;;;;;;37.77;16.57;;;-1.40;92.50;;;;;;795090;179;26425;-81
2024/01/17 06:15:37;;;;;;;37.53;15.80;;;-1.40;92.60;;;;;;792481;178;26466;-80
2024/01/17 06:18:04;;;;;;;36.77;15.30;;;-1.40;92.60;;;;;;797735;179;26438;-80
2024/01/17 06:20:32;;;;;;;32.97;15.83;;;-1.30;92.60;;;;;;799092;179;26422;-80
2024/01/17 06:22:58;;;;;;;35.40;15.17;;;-1.30;92.50;;;;;;800559;178;26625;-80
2024/01/17 06:25:25;;;;;;;37.50;15.97;;;-1.30;92.50;;;;;;798030;180;26453;-80
2024/01/17 06:27:51;;;;;;;41.93;17.37;;;-1.30;92.30;;;;;;797656;180;26959;-80
2024/01/17 06:30:18;;;;;;;36.10;15.57;;;-1.20;92.30;;;;;;798390;179;26441;-81
2024/01/17 06:32:45;;;;;;;42.17;16.43;;;-1.20;92.10;;;;;;799807;180;26933;-80
2024/01/17 06:35:11;;;;;;;38.23;16.17;;;-1.20;92.10;;;;;;798348;180;26414;-78
2024/01/17 06:37:38;;;;;;;37.57;16.17;;;-1.20;92.00;;;;;;796118;179;26449;-79
2024/01/17 06:40:05;;;;;;;34.40;16.07;;;-1.20;92.10;;;;;;793784;178;27007;-80
2024/01/17 06:42:32;;;;;;;37.13;16.60;;;-1.20;92.30;;;;;;793421;180;26443;-81
2024/01/17 06:44:58;;;;;;;35.10;15.27;;;-1.10;92.00;;;;;;790375;180;26434;-80
2024/01/17 06:47:25;;;;;;;31.70;15.07;;;-1.10;91.90;;;;;;794136;176;26436;-78
2024/01/17 06:49:51;;;;;;;34.10;15.90;;;-1.00;91.90;;;;;;795576;179;26454;-81
2024/01/17 06:52:18;;;;;;;34.00;15.17;;;-1.00;91.80;;;;;;795728;180;27218;-80
2024/01/17 06:54:45;;;;;;;47.97;14.87;;;-1.00;91.80;;;;;;793349;180;26415;-80
2024/01/17 06:57:11;;;;;;;36.80;15.20;;;-1.00;91.80;;;;;;797105;179;27010;-80
2024/01/17 06:59:38;;;;;;;40.67;16.37;;;-1.00;91.60;;;;;;797297;180;26435;-80
2024/01/17 07:02:04;;;;;;;36.80;14.67;;;-1.00;91.50;;;;;;795135;180;26410;-80
2024/01/17 07:04:40;;;;;;;33.87;15.23;;;-0.90;91.20;;;;;;796348;180;26413;31
2024/01/17 07:07:03;;;;;;;42.70;16.17;;;-0.90;91.10;;;;;;751457;188;26669;-78
2024/01/17 07:09:30;;;;;;;33.00;16.00;;;-0.90;91.20;;;;;;751350;189;26529;-78
2024/01/17 07:11:57;;;;;;;32.97;15.47;;;-0.90;91.20;;;;;;751028;188;28149;-78
2024/01/17 07:14:23;;;;;;;34.60;15.37;;;-0.90;91.20;;;;;;751770;189;26553;-79
2024/01/17 07:16:50;;;;;;;30.90;15.10;;;-0.90;91.20;;;;;;749323;190;26539;-81
2024/01/17 07:19:16;;;;;;;30.40;14.33;;;-0.80;91.20;;;;;;741508;192;26537;-78
2024/01/17 07:21:43;;;;;;;33.67;13.97;;;-0.80;91.00;;;;;;751291;189;26591;-80
2024/01/17 07:24:10;;;;;;;33.13;14.07;;;-0.80;90.80;;;;;;749727;192;26705;-81
2024/01/17 07:26:37;;;;;;;34.77;15.23;;;-0.80;90.70;;;;;;749401;189;27963;-81
2024/01/17 07:29:03;;;;;;;32.87;14.90;;;-0.70;90.70;;;;;;758093;187;26528;-80
2024/01/17 07:31:30;;;;;;;36.40;15.27;;;-0.70;90.90;;;;;;746547;190;26578;-79
2024/01/17 07:33:57;;;;;;;36.07;14.60;;;-0.70;91.00;;;;;;755246;188;26547;-76
2024/01/17 07:36:24;;;;;;;37.03;14.00;;;-0.70;90.90;;;;;;755446;188;26582;-80
2024/01/17 07:38:50;;;;;;;28.23;13.37;;;-0.70;90.90;;;;;;755055;188;26517;-79
2024/01/17 07:41:17;;;;;;;36.97;15.27;;;-0.60;90.90;;;;;;742054;192;26600;-80
2024/01/17 07:43:44;;;;;;;43.03;15.27;;;-0.60;91.10;;;;;;757073;187;28187;-78
2024/01/17 07:46:12;;;;;;;31.13;13.60;;;-0.50;91.40;;;;;;747471;189;26558;-80
2024/01/17 07:48:37;;;;;;;40.50;14.43;;;-0.50;91.10;;;;;;744668;190;27078;-81
2024/01/17 07:51:05;;;;;;;34.37;14.23;;;-0.50;90.80;;;;;;743952;191;26528;-76
2024/01/17 07:53:31;;;;;;;30.90;14.63;;;-0.40;90.80;;;;;;749966;191;26528;-78
2024/01/17 07:55:59;;;;;;;40.57;16.57;;;-0.40;90.40;;;;;;750261;188;28158;-79
2024/01/17 07:58:24;;;;;;;30.60;14.17;;;-0.40;90.20;;;;;;749688;187;26529;-78
2024/01/17 08:00:51;;;;;;;31.87;13.90;;;-0.40;90.30;;;;;;749357;187;26535;-79
2024/01/17 08:03:17;;;;;;;31.03;14.23;;;-0.40;90.40;;;;;;750005;188;27046;-79
2024/01/17 08:05:44;;;;;;;30.60;13.73;;;-0.30;90.20;;;;;;749190;187;26562;-76
2024/01/17 08:08:11;;;;;;;27.60;13.10;;;-0.30;90.10;;;;;;749081;192;26562;-79
2024/01/17 08:10:38;;;;;;;27.43;12.27;;;-0.20;90.10;;;;;;749282;191;26533;-81
2024/01/17 08:13:05;;;;;;;31.10;13.47;;;-0.20;90.10;;;;;;749035;187;26541;-78
2024/01/17 08:15:31;;;;;;;31.13;13.83;;;-0.20;90.00;;;;;;749346;190;26562;-80
2024/01/17 08:17:58;;;;;;;33.33;12.60;;;-0.20;89.80;;;;;;752744;187;26598;-80
2024/01/17 08:20:25;;;;;;;29.10;14.27;;;-0.20;89.70;;;;;;756307;188;27081;-80
2024/01/17 08:22:52;;;;;;;33.60;14.20;;;-0.10;89.10;;;;;;742343;190;26507;-77
2024/01/17 08:25:19;;;;;;;30.03;14.53;;;-0.10;89.60;;;;;;755014;190;26536;-82
2024/01/17 08:27:45;;;;;;;29.80;13.67;;;-0.10;89.30;;;;;;756331;188;27027;-79
2024/01/17 08:30:14;;;;;;;51.07;15.47;;;-0.10;88.20;;;;;;743001;190;26504;-79
2024/01/17 08:32:39;;;;;;;32.20;13.93;;;-0.10;88.70;;;;;;753913;187;26532;-80
2024/01/17 08:35:06;;;;;;;31.53;14.30;;;0.00;89.50;;;;;;754755;187;26635;-81
2024/01/17 08:37:33;;;;;;;31.20;13.97;;;0.00;88.80;;;;;;759359;188;26509;-81
2024/01/17 08:40:00;;;;;;;26.17;13.07;;;0.00;88.10;;;;;;757525;189;27080;-80
2024/01/17 08:42:26;;;;;;;29.97;14.20;;;0.00;88.20;;;;;;756089;189;26507;-81
2024/01/17 08:44:53;;;;;;;38.40;15.83;;;0.00;88.30;;;;;;753217;189;26607;-81
2024/01/17 08:47:20;;;;;;;37.07;14.23;;;0.00;88.60;;;;;;755906;189;26507;-78
2024/01/17 08:49:47;;;;;;;32.17;14.53;;;0.10;88.70;;;;;;755558;189;26502;-81
2024/01/17 08:52:15;;;;;;;36.07;15.07;;;0.10;88.60;;;;;;749784;187;26546;-80
2024/01/17 08:54:42;;;;;;;32.10;14.53;;;0.10;88.30;;;;;;748536;188;26523;-80
2024/01/17 08:57:09;;;;;;;34.50;14.83;;;0.20;88.30;;;;;;756187;188;26639;-79
2024/01/17 08:59:36;;;;;;;35.30;14.27;;;0.20;88.60;;;;;;746667;188;26629;-77
2024/01/17 09:02:03;;;;;;;37.53;14.27;;;0.20;88.60;;;;;;745188;192;26537;-80
2024/01/17 09:04:29;;;;;;;33.30;14.27;;;0.20;88.40;;;;;;745364;189;26596;-79
2024/01/17 09:06:56;;;;;;;30.57;13.80;;;0.20;88.20;;;;;;745268;192;26583;-79
2024/01/17 09:09:25;;;;;;;27.33;13.07;;;0.30;88.10;;;;;;746770;192;26859;-80
2024/01/17 09:11:49;;;;;;;30.73;14.60;;;0.30;88.40;;;;;;746608;192;26525;-81
2024/01/17 09:14:19;;;;;;;37.53;14.93;;;0.30;88.20;;;;;;747147;191;27083;-80
2024/01/17 09:16:42;;;;;;;34.37;14.47;;;0.30;88.10;;;;;;746074;192;26661;-79
2024/01/17 09:19:09;;;;;;;27.13;14.53;;;0.30;87.50;;;;;;746620;192;27082;-80
2024/01/17 09:21:35;;;;;;;28.53;13.80;;;0.30;87.70;;;;;;746925;188;26558;-79
2024/01/17 09:24:03;;;;;;;30.77;14.03;;;0.30;87.40;;;;;;745069;190;27134;-80
2024/01/17 09:26:29;;;;;;;28.47;13.97;;;0.30;87.30;;;;;;746563;189;26537;-79
2024/01/17 09:28:55;;;;;;;33.17;17.03;;;0.40;88.30;;;;;;747008;192;26551;-80
2024/01/17 09:31:22;;;;;;;33.70;14.40;;;0.40;87.90;;;;;;746942;188;26539;-80
2024/01/17 09:33:50;;;;;;;26.53;13.83;;;0.40;88.00;;;;;;747069;192;26574;-80
2024/01/17 09:36:16;;;;;;;25.57;14.23;;;0.40;87.50;;;;;;746681;189;27092;-78
2024/01/17 09:38:43;;;;;;;30.97;14.00;;;0.50;87.30;;;;;;746786;192;26541;-79
2024/01/17 09:41:10;;;;;;;29.70;14.40;;;0.50;87.20;;;;;;746715;190;26540;-81
2024/01/17 09:43:38;;;;;;;31.97;16.10;;;0.50;87.30;;;;;;746503;190;26585;-81
2024/01/17 09:46:11;;;;;;;32.93;15.30;;;0.60;87.80;;;;;;748985;189;27172;-77
2024/01/17 09:48:32;;;;;;;32.37;14.60;;;0.60;87.10;;;;;;748592;191;26536;-77
2024/01/17 09:50:58;;;;;;;37.13;15.57;;;0.70;86.70;;;;;;747733;190;26594;-78
2024/01/17 09:53:25;;;;;;;37.70;16.77;;;0.60;86.20;;;;;;748095;192;27084;-79
2024/01/17 09:55:53;;;;;;;35.20;16.30;;;0.70;86.40;;;;;;747861;192;26609;-77
2024/01/17 09:58:19;;;;;;;29.60;15.77;;;0.70;86.60;;;;;;748390;191;26565;-78
2024/01/17 10:00:45;;;;;;;32.27;15.20;;;0.70;86.60;;;;;;747900;191;26537;-81
2024/01/17 10:03:20;;;;;;;35.83;15.67;;;0.80;86.00;;;;;;748013;191;26592;-79
2024/01/17 10:05:39;;;;;;;39.90;15.90;;;0.80;86.10;;;;;;748983;192;26777;-79
2024/01/17 10:08:06;;;;;;;35.43;15.67;;;0.80;86.20;;;;;;749252;188;26628;-78
2024/01/17 10:10:33;;;;;;;32.23;16.30;;;0.80;86.60;;;;;;748978;191;26575;-78
2024/01/17 10:13:00;;;;;;;34.87;15.50;;;0.80;86.60;;;;;;748453;190;26531;-78
2024/01/17 10:15:27;;;;;;;30.80;16.47;;;0.90;86.80;;;;;;748365;190;26553;-78
2024/01/17 10:17:53;;;;;;;36.33;16.80;;;0.90;87.00;;;;;;748678;188;26532;-79
2024/01/17 10:20:20;;;;;;;36.97;15.77;;;0.90;86.50;;;;;;749158;188;26541;-79
2024/01/17 10:22:47;;;;;;;28.70;15.60;;;1.00;87.10;;;;;;749048;190;26557;-80
2024/01/17 10:25:13;;;;;;;34.60;14.47;;;1.00;86.40;;;;;;747789;192;26562;-79
2024/01/17 10:27:40;;;;;;;50.43;16.97;;;1.00;86.60;;;;;;747503;192;26540;-81
2024/01/17 10:30:07;;;;;;;49.03;18.93;;;1.00;85.90;;;;;;746861;192;26521;-79
2024/01/17 10:32:34;;;;;;;39.97;17.93;;;1.10;86.10;;;;;;747560;191;26571;-79
2024/01/17 10:35:01;;;;;;;36.67;16.73;;;1.10;86.30;;;;;;747120;188;27174;-79
2024/01/17 10:37:27;;;;;;;36.40;17.60;;;1.10;86.40;;;;;;747368;192;26605;-80
2024/01/17 10:40:05;;;;;;;34.53;16.90;;;1.10;85.90;;;;;;746996;192;26792;-79
2024/01/17 10:42:32;;;;;;;41.20;18.07;;;1.10;86.10;;;;;;749313;190;27098;-81
2024/01/17 10:44:59;;;;;;;39.87;17.87;;;1.20;86.70;;;;;;746852;192;26557;-80
2024/01/17 10:47:25;;;;;;;37.77;17.97;;;1.20;86.40;;;;;;747030;192;27098;-79
2024/01/17 10:49:52;;;;;;;37.60;16.13;;;1.20;85.80;;;;;;738287;191;26551;-80
2024/01/17 10:52:18;;;;;;;32.23;15.57;;;1.20;86.60;;;;;;753700;188;27161;-80
2024/01/17 10:54:48;;;;;;;35.30;16.53;;;1.20;87.30;;;;;;753098;190;26575;-80
2024/01/17 10:57:15;;;;;;;33.40;16.67;;;1.30;86.40;;;;;;755661;188;26570;-80
2024/01/17 10:59:42;;;;;;;37.60;17.30;;;1.30;86.60;;;;;;751606;191;26547;-78
2024/01/17 11:02:09;;;;;;;37.00;16.60;;;1.30;87.10;;;;;;754454;189;26529;-79
2024/01/17 11:04:36;;;;;;;37.90;17.13;;;1.30;86.80;;;;;;754750;189;26637;-77
2024/01/17 11:07:02;;;;;;;36.90;17.40;;;1.30;87.10;;;;;;757254;188;26580;-80
2024/01/17 11:09:29;;;;;;;33.67;17.07;;;1.30;87.70;;;;;;758081;188;27052;-79
2024/01/17 11:11:56;;;;;;;34.60;16.97;;;1.30;88.10;;;;;;756492;189;26540;-80
2024/01/17 11:14:22;;;;;;;36.03;17.70;;;1.30;88.70;;;;;;755935;189;26568;-80
2024/01/17 11:16:49;;;;;;;37.77;18.13;;;1.20;88.90;;;;;;754792;186;26515;-79
2024/01/17 11:19:15;;;;;;;36.10;17.83;;;1.20;89.40;;;;;;750823;190;26578;-80
2024/01/17 11:21:42;;;;;;;34.90;17.63;;;1.20;90.10;;;;;;751509;190;26565;-75
2024/01/17 11:24:22;;;;;;;33.23;16.83;;;1.20;90.40;;;;;;748307;187;26517;-79
2024/01/17 11:27:08;;;;;;;38.13;19.17;;;1.20;90.80;;;;;;739846;193;26568;-81
2024/01/17 11:29:39;;;;;;;41.77;19.70;;;1.10;91.20;;;;;;731966;193;26586;-78
2024/01/17 11:33:44;;;;;;;40.33;21.63;;;1.00;92.00;;;;;;802614;177;26487;-78
2024/01/17 11:36:11;;;;;;;50.20;21.27;;;1.00;92.70;;;;;;784084;180;26578;-77
2024/01/17 11:38:38;;;;;;;44.47;22.30;;;0.90;93.20;;;;;;783752;180;26464;-78
2024/01/17 11:41:06;;;;;;;44.03;22.43;;;0.90;93.70;;;;;;774089;183;26493;-79
2024/01/17 11:43:35;;;;;;;42.03;21.87;;;0.80;94.30;;;;;;791197;181;26999;-81
2024/01/17 11:46:00;;;;;;;52.07;23.87;;;0.80;94.70;;;;;;773940;183;26525;-73
2024/01/17 11:48:27;;;;;;;49.23;24.03;;;0.70;95.30;;;;;;780362;182;27085;-83
2024/01/17 11:51:14;;;;;;;45.53;20.73;;;0.90;96.10;;;;;;789095;180;26532;-82
2024/01/17 11:53:41;;;;;;;40.87;20.60;;;1.20;96.70;;;;;;783296;181;26522;-76
2024/01/17 11:56:08;;;;;;;44.97;21.53;;;1.20;96.70;;;;;;791830;180;26478;-80
2024/01/17 11:58:50;;;;;;;51.07;24.00;;;1.10;96.50;;;;;;790688;180;26461;-80
2024/01/17 12:01:42;;;;;;;46.87;22.97;;;0.90;96.30;;;;;;788815;181;26482;-80
2024/01/17 12:04:11;;;;;;;50.87;24.97;;;0.80;96.40;;;;;;791696;180;26485;-80
2024/01/17 12:06:38;;;;;;;53.90;26.07;;;0.80;96.90;;;;;;791765;179;26469;-77
2024/01/17 12:09:08;;;;;;;53.90;24.50;;;0.80;98.10;;;;;;787966;180;26509;-79
2024/01/17 12:14:02;;;;;;;56.73;27.43;;;0.70;97.90;;;;;;799922;174;26791;-79
2024/01/17 12:16:30;;;;;;;59.30;27.73;;;0.80;98.80;;;;;;764322;184;26525;-78
2024/01/17 12:19:00;;;;;;;62.67;27.70;;;0.70;98.80;;;;;;777297;183;26511;-77
2024/01/17 12:21:32;;;;;;;56.83;26.70;;;0.70;98.80;;;;;;771963;184;26515;-78
2024/01/17 12:24:11;;;;;;;64.17;28.17;;;0.70;98.90;;;;;;773807;184;26531;-79
2024/01/17 12:26:57;;;;;;;57.30;27.57;;;0.70;99.10;;;;;;774539;182;26511;-78
2024/01/17 12:29:29;;;;;;;59.50;28.03;;;0.60;99.10;;;;;;766786;186;26771;-78
2024/01/17 12:32:02;;;;;;;55.40;27.07;;;0.60;99.10;;;;;;770625;180;26571;-78
2024/01/17 12:34:38;;;;;;;58.23;28.37;;;0.60;99.10;;;;;;778527;184;26542;-78